createdAt,value
2014-08-04T20:51:37.942Z,25.6
2014-08-04T20:51:56.130Z,25.6
2014-08-04T20:52:13.694Z,25.7
2014-08-04T20:52:32.022Z,25.7
2014-08-04T20:52:50.225Z,25.8
2014-08-04T20:53:08.491Z,25.8
2014-08-04T20:53:47.743Z,25.9
2014-08-04T20:54:05.321Z,25.9
2014-08-04T20:54:22.901Z,25.9
2014-08-04T20:54:41.104Z,25.9
2014-08-04T20:54:58.667Z,26
2014-08-04T20:55:15.730Z,26
2014-08-04T20:55:33.433Z,26
2014-08-04T20:55:51.637Z,26
2014-08-04T20:56:09.199Z,26
2014-08-04T20:56:26.810Z,26
2014-08-04T20:56:44.998Z,26
2014-08-04T20:57:03.201Z,26
2014-08-04T20:57:20.282Z,26
2014-08-04T20:57:38.470Z,26
2014-08-04T20:57:55.407Z,26
2014-08-04T20:58:13.595Z,26.1
2014-08-04T20:58:31.799Z,26.1
2014-08-04T20:58:49.986Z,26.1
2014-08-04T20:59:08.189Z,26.1
2014-08-04T20:59:25.910Z,26.1
2014-08-04T20:59:44.098Z,26.1
2014-08-04T21:00:02.316Z,26.1
2014-08-04T21:00:18.613Z,26.1
2014-08-04T21:00:36.943Z,26.1
2014-08-04T21:00:55.287Z,26.1
2014-08-04T21:01:13.615Z,26.1
2014-08-04T21:01:31.805Z,26.1
2014-08-04T21:01:50.008Z,26.1
2014-08-04T21:02:06.930Z,26.1
2014-08-04T21:02:24.510Z,26.1
2014-08-04T21:02:42.713Z,26.1
2014-08-04T21:03:00.260Z,26.1
2014-08-04T21:03:17.963Z,26.1
2014-08-04T21:03:36.168Z,26.2
2014-08-04T21:03:53.731Z,26.2
2014-08-04T21:04:11.309Z,26.2
2014-08-04T21:04:28.248Z,26.1
2014-08-04T21:04:45.826Z,26.2
2014-08-04T21:05:04.155Z,26.2
2014-08-04T21:05:22.342Z,26.1
2014-08-04T21:05:40.047Z,26.1
2014-08-04T21:05:57.625Z,26.2
2014-08-04T21:06:15.188Z,26.2
2014-08-04T21:06:32.768Z,26.2
2014-08-04T21:06:50.955Z,26.1
2014-08-04T21:07:08.534Z,26.2
2014-08-04T21:07:25.612Z,26.2
2014-08-04T21:07:43.801Z,26.2
2014-08-04T21:08:02.004Z,26.2
2014-08-04T21:08:19.567Z,26.2
2014-08-04T21:08:36.506Z,26.2
2014-08-04T21:08:54.694Z,26.2
2014-08-04T21:09:12.881Z,26.2
2014-08-04T21:09:29.959Z,26.2
2014-08-04T21:09:48.290Z,26.2
2014-08-04T21:10:05.868Z,26.2
2014-08-04T21:10:24.055Z,26.2
2014-08-04T21:10:41.620Z,26.2
2014-08-04T21:10:58.698Z,26.2
2014-08-04T21:11:15.745Z,26.2
2014-08-04T21:11:34.088Z,26.2
2014-08-04T21:11:52.294Z,26.2
2014-08-04T21:12:10.481Z,26.2
2014-08-04T21:12:28.684Z,26.2
2014-08-04T21:12:46.874Z,26.2
2014-08-04T21:13:05.077Z,26.2
2014-08-04T21:13:23.405Z,26.2
2014-08-04T21:13:41.735Z,26.2
2014-08-04T21:13:59.938Z,26.2
2014-08-04T21:14:18.266Z,26.2
2014-08-04T21:14:36.610Z,26.2
2014-08-04T21:14:54.175Z,26.2
2014-08-04T21:15:12.378Z,26.2
2014-08-04T21:15:30.565Z,26.2
2014-08-04T21:15:48.770Z,26.2
2014-08-04T21:16:06.973Z,26.2
2014-08-04T21:16:24.536Z,26.2
2014-08-04T21:16:42.240Z,26.2
2014-08-04T21:16:59.178Z,26.2
2014-08-04T21:17:16.756Z,26.2
2014-08-04T21:17:34.928Z,26.2
2014-08-04T21:17:53.133Z,26.3
2014-08-04T21:18:11.336Z,26.2
2014-08-04T21:18:29.539Z,26.2
2014-08-04T21:18:47.103Z,26.2
2014-08-04T21:19:04.682Z,26.2
2014-08-04T21:19:22.244Z,26.3
2014-08-04T21:19:39.947Z,26.3
2014-08-04T21:19:57.652Z,26.2
2014-08-04T21:20:15.230Z,26.2
2014-08-04T21:20:32.184Z,26.2
2014-08-04T21:20:50.374Z,26.2
2014-08-04T21:21:08.577Z,26.2
2014-08-04T21:21:26.265Z,26.2
2014-08-04T21:21:44.593Z,26.2
2014-08-04T21:22:02.797Z,26.3
2014-08-04T21:22:21.125Z,26.3
2014-08-04T21:22:39.313Z,26.2
2014-08-04T21:22:56.252Z,26.2
2014-08-04T21:23:14.455Z,26.2
2014-08-04T21:23:32.018Z,26.2
2014-08-04T21:23:50.346Z,26.3
2014-08-04T21:24:07.911Z,26.3
2014-08-04T21:24:25.614Z,26.3
2014-08-04T21:24:43.193Z,26.3
2014-08-04T21:25:01.397Z,26.2
2014-08-04T21:25:18.959Z,26.3
2014-08-04T21:25:37.162Z,26.3
2014-08-04T21:25:54.725Z,26.3
2014-08-04T21:26:12.305Z,26.3
2014-08-04T21:26:29.852Z,26.3
2014-08-04T21:26:47.430Z,26.3
2014-08-04T21:27:05.761Z,26.3
2014-08-04T21:27:23.949Z,26.3
2014-08-04T21:27:41.527Z,26.3
2014-08-04T21:27:59.089Z,26.3
2014-08-04T21:28:17.293Z,26.3
2014-08-04T21:28:34.231Z,26.3
2014-08-04T21:28:52.434Z,26.3
2014-08-04T21:29:09.373Z,26.3
2014-08-04T21:29:27.561Z,26.3
2014-08-04T21:29:44.014Z,26.3
2014-08-04T21:30:02.202Z,26.3
2014-08-04T21:30:20.407Z,26.3
2014-08-04T21:30:38.594Z,26.3
2014-08-04T21:30:56.297Z,26.3
2014-08-04T21:31:14.502Z,26.3
2014-08-04T21:31:32.706Z,26.3
2014-08-04T21:31:50.409Z,26.3
2014-08-04T21:32:07.989Z,26.3
2014-08-04T21:32:26.176Z,26.3
2014-08-04T21:32:43.739Z,26.3
2014-08-04T21:33:00.817Z,26.3
2014-08-04T21:33:19.006Z,26.3
2014-08-04T21:33:36.085Z,26.3
2014-08-04T21:33:54.413Z,26.3
2014-08-04T21:34:12.602Z,26.3
2014-08-04T21:34:30.805Z,26.3
2014-08-04T21:34:48.993Z,26.3
2014-08-04T21:35:06.571Z,26.3
2014-08-04T21:35:23.511Z,26.3
2014-08-04T21:35:41.699Z,26.3
2014-08-04T21:35:59.277Z,26.3
2014-08-04T21:36:17.466Z,26.3
2014-08-04T21:36:35.653Z,26.3
2014-08-04T21:36:53.231Z,26.2
2014-08-04T21:37:10.794Z,26.3
2014-08-04T21:37:28.999Z,26.3
2014-08-04T21:37:46.561Z,26.3
2014-08-04T21:38:04.764Z,26.3
2014-08-04T21:38:21.704Z,26.3
2014-08-04T21:38:40.032Z,26.3
2014-08-04T21:38:58.220Z,26.3
2014-08-04T21:39:16.423Z,26.3
2014-08-04T21:39:33.987Z,26.3
2014-08-04T21:39:52.190Z,26.3
2014-08-04T21:40:09.753Z,26.3
2014-08-04T21:40:26.833Z,26.3
2014-08-04T21:40:45.161Z,26.3
2014-08-04T21:41:03.364Z,26.3
2014-08-04T21:41:21.552Z,26.3
2014-08-04T21:41:39.758Z,26.3
2014-08-04T21:41:57.461Z,26.3
2014-08-04T21:42:15.789Z,26.3
2014-08-04T21:42:33.978Z,26.3
2014-08-04T21:42:51.681Z,26.3
2014-08-04T21:43:09.868Z,26.3
2014-08-04T21:43:28.071Z,26.3
2014-08-04T21:43:46.277Z,26.3
2014-08-04T21:44:04.590Z,26.3
2014-08-04T21:44:21.527Z,26.3
2014-08-04T21:44:38.483Z,26.3
2014-08-04T21:44:55.420Z,26.3
2014-08-04T21:45:13.608Z,26.3
2014-08-04T21:45:31.811Z,26.3
2014-08-04T21:45:49.516Z,26.3
2014-08-04T21:46:06.453Z,26.3
2014-08-04T21:46:24.031Z,26.3
2014-08-04T21:46:42.220Z,26.3
2014-08-04T21:46:59.173Z,26.3
2014-08-04T21:47:17.486Z,26.3
2014-08-04T21:47:35.642Z,26.3
2014-08-04T21:47:53.831Z,26.3
2014-08-04T21:48:12.034Z,26.3
2014-08-04T21:48:29.597Z,26.3
2014-08-04T21:48:47.802Z,26.3
2014-08-04T21:49:06.005Z,26.3
2014-08-04T21:49:23.552Z,26.3
2014-08-04T21:49:41.898Z,26.3
2014-08-04T21:49:59.476Z,26.3
2014-08-04T21:50:16.413Z,26.3
2014-08-04T21:50:34.617Z,26.3
2014-08-04T21:50:52.806Z,26.3
2014-08-04T21:51:09.744Z,26.3
2014-08-04T21:51:27.947Z,26.3
2014-08-04T21:51:46.136Z,26.3
2014-08-04T21:52:03.699Z,26.3
2014-08-04T21:52:22.027Z,26.3
2014-08-04T21:52:39.589Z,26.3
2014-08-04T21:52:57.934Z,26.3
2014-08-04T21:53:16.122Z,26.3
2014-08-04T21:53:34.325Z,26.3
2014-08-04T21:53:52.515Z,26.3
2014-08-04T21:54:09.593Z,26.3
2014-08-04T21:54:27.156Z,26.3
2014-08-04T21:54:45.359Z,26.3
2014-08-04T21:55:02.314Z,26.3
2014-08-04T21:55:19.877Z,26.3
2014-08-04T21:55:38.064Z,26.3
2014-08-04T21:55:55.019Z,26.3
2014-08-04T21:56:13.207Z,26.3
2014-08-04T21:56:31.394Z,26.3
2014-08-04T21:56:48.472Z,26.3
2014-08-04T21:57:05.459Z,26.3
2014-08-04T21:57:23.646Z,26.3
2014-08-04T21:57:41.349Z,26.3
2014-08-04T21:57:59.054Z,26.3
2014-08-04T21:58:16.633Z,26.3
2014-08-04T21:58:34.820Z,26.3
2014-08-04T21:58:52.398Z,26.3
2014-08-04T21:59:10.743Z,26.3
2014-08-04T21:59:28.430Z,26.3
2014-08-04T21:59:44.743Z,26.3
2014-08-04T22:00:01.682Z,26.3
2014-08-04T22:00:20.011Z,26.3
2014-08-04T22:00:36.964Z,26.3
2014-08-04T22:00:54.526Z,26.3
2014-08-04T22:01:12.217Z,26.3
2014-08-04T22:01:28.529Z,26.3
2014-08-04T22:01:46.732Z,26.3
2014-08-04T22:02:04.437Z,26.3
2014-08-04T22:02:22.000Z,26.3
2014-08-04T22:02:40.187Z,26.3
2014-08-04T22:02:57.766Z,26.3
2014-08-04T22:03:16.079Z,26.3
2014-08-04T22:03:33.782Z,26.3
2014-08-04T22:03:51.985Z,26.3
2014-08-04T22:04:10.176Z,26.3
2014-08-04T22:04:28.379Z,26.3
2014-08-04T22:04:45.941Z,26.3
2014-08-04T22:05:02.879Z,26.3
2014-08-04T22:05:20.611Z,26.3
2014-08-04T22:05:37.548Z,26.3
2014-08-04T22:05:55.751Z,26.3
2014-08-04T22:06:12.714Z,26.3
2014-08-04T22:06:30.417Z,26.3
2014-08-04T22:06:47.511Z,26.3
2014-08-04T22:07:04.574Z,26.3
2014-08-04T22:07:22.818Z,26.3
2014-08-04T22:07:41.005Z,26.3
2014-08-04T22:07:58.583Z,26.3
2014-08-04T22:08:16.811Z,26.3
2014-08-04T22:08:35.014Z,26.3
2014-08-04T22:08:53.201Z,26.3
2014-08-04T22:09:11.420Z,26.3
2014-08-04T22:09:29.664Z,26.3
2014-08-04T22:09:47.852Z,26.3
2014-08-04T22:10:06.039Z,26.3
2014-08-04T22:10:23.150Z,26.3
2014-08-04T22:10:41.354Z,26.2
2014-08-04T22:10:59.682Z,26.2
2014-08-04T22:11:17.869Z,26.2
2014-08-04T22:11:57.776Z,26.3
2014-08-04T22:12:15.338Z,26.2
2014-08-04T22:12:31.182Z,26.3
2014-08-04T22:12:49.370Z,26.3
2014-08-04T22:13:07.698Z,26.2
2014-08-04T22:13:23.386Z,26.2
2014-08-04T22:13:41.589Z,26.3
2014-08-04T22:13:59.167Z,26.2
2014-08-04T22:14:16.730Z,26.3
2014-08-04T22:14:34.933Z,26.3
2014-08-04T22:14:53.261Z,26.3
2014-08-04T22:15:10.839Z,26.3
2014-08-04T22:15:28.414Z,26.3
2014-08-04T22:15:45.976Z,26.3
2014-08-04T22:16:04.180Z,26.3
2014-08-04T22:16:21.742Z,26.3
2014-08-04T22:16:39.312Z,26.3
2014-08-04T22:16:57.640Z,26.3
2014-08-04T22:17:14.593Z,26.3
2014-08-04T22:17:31.678Z,26.3
2014-08-04T22:17:49.865Z,26.3
2014-08-04T22:18:08.069Z,26.3
2014-08-04T22:18:26.397Z,26.3
2014-08-04T22:18:44.905Z,26.3
2014-08-04T22:19:01.967Z,26.3
2014-08-04T22:19:20.295Z,26.3
2014-08-04T22:19:37.239Z,26.3
2014-08-04T22:19:55.442Z,26.3
2014-08-04T22:20:13.645Z,26.3
2014-08-04T22:20:31.208Z,26.3
2014-08-04T22:20:49.401Z,26.3
2014-08-04T22:21:07.604Z,26.3
2014-08-04T22:21:25.792Z,26.5
2014-08-04T22:21:42.733Z,26.6
2014-08-04T22:22:00.436Z,26.5
2014-08-04T22:22:18.139Z,26.5
2014-08-04T22:22:36.347Z,26.4
2014-08-04T22:22:54.550Z,26.4
2014-08-04T22:23:12.753Z,26.3
2014-08-04T22:23:30.956Z,26.3
2014-08-04T22:23:48.521Z,26.2
2014-08-04T22:24:06.084Z,26.1
2014-08-04T22:24:24.287Z,26.1
2014-08-04T22:24:42.480Z,26
2014-08-04T22:25:00.058Z,26
2014-08-04T22:25:18.245Z,26
2014-08-04T22:25:36.761Z,25.9
2014-08-04T22:25:54.325Z,25.9
2014-08-04T22:26:11.903Z,25.8
2014-08-04T22:26:30.232Z,25.8
2014-08-04T22:26:47.313Z,25.8
2014-08-04T22:27:05.016Z,25.8
2014-08-04T22:27:23.203Z,25.7
2014-08-04T22:27:41.406Z,25.7
2014-08-04T22:27:58.972Z,25.6
2014-08-04T22:28:17.175Z,25.6
2014-08-04T22:28:35.363Z,25.6
2014-08-04T22:28:53.569Z,25.6
2014-08-04T22:29:11.772Z,25.6
2014-08-04T22:29:28.709Z,25.6
2014-08-04T22:29:46.272Z,25.5
2014-08-04T22:30:03.836Z,25.5
2014-08-04T22:30:21.430Z,25.5
2014-08-04T22:30:39.618Z,25.5
2014-08-04T22:30:57.949Z,25.5
2014-08-04T22:31:16.152Z,25.4
2014-08-04T22:31:34.480Z,25.4
2014-08-04T22:31:52.042Z,25.4
2014-08-04T22:32:11.434Z,25.4
2014-08-04T22:32:29.637Z,25.3
2014-08-04T22:32:47.840Z,25.3
2014-08-04T22:33:05.406Z,25.3
2014-08-04T22:33:23.734Z,25.3
2014-08-04T22:33:42.062Z,25.3
2014-08-04T22:33:59.641Z,25.3
2014-08-04T22:34:17.969Z,25.3
2014-08-04T22:34:36.297Z,25.3
2014-08-04T22:34:54.001Z,25.3
2014-08-04T22:35:11.706Z,25.3
2014-08-04T22:35:29.268Z,25.3
2014-08-04T22:35:46.846Z,25.3
2014-08-04T22:36:05.051Z,25.2
2014-08-04T22:36:21.989Z,25.2
2014-08-04T22:36:40.176Z,25.2
2014-08-04T22:36:58.380Z,25.2
2014-08-04T22:37:16.569Z,25.2
2014-08-04T22:37:33.507Z,25.2
2014-08-04T22:37:51.710Z,25.2
2014-08-04T22:38:09.916Z,25.2
2014-08-04T22:38:28.103Z,25.3
2014-08-04T22:38:46.291Z,25.2
2014-08-04T22:39:02.619Z,25.3
2014-08-04T22:39:20.807Z,25.2
2014-08-04T22:39:38.386Z,25.2
2014-08-04T22:39:56.073Z,25.2
2014-08-04T22:40:14.404Z,25.2
2014-08-04T22:40:30.857Z,25.2
2014-08-04T22:40:49.045Z,25.2
2014-08-04T22:41:07.232Z,25.2
2014-08-04T22:41:24.811Z,25.1
2014-08-04T22:41:42.374Z,25.1
2014-08-04T22:41:58.686Z,25.1
2014-08-04T22:42:16.893Z,25.1
2014-08-04T22:42:35.096Z,25.1
2014-08-04T22:42:53.283Z,25.1
2014-08-04T22:43:11.486Z,25.1
2014-08-04T22:43:28.425Z,25.1
2014-08-04T22:43:46.612Z,25.1
2014-08-04T22:44:04.190Z,25.2
2014-08-04T22:44:22.522Z,25.2
2014-08-04T22:44:40.209Z,25.2
